sensor_id;sensor_type;location;lat;lon;timestamp;P1;durP1;ratioP1;P2;durP2;ratioP2
2972;SDS011;1496;51.404;7.232;2023-05-08T00:02:26;23.67;;;19.00;;
2972;SDS011;1496;51.404;7.232;2023-05-08T00:04:55;24.67;;;19.10;;
2972;SDS011;1496;51.404;7.232;2023-05-08T00:07:21;23.60;;;19.00;;
2972;SDS011;1496;51.404;7.232;2023-05-08T00:09:49;22.47;;;18.20;;
2972;SDS011;1496;51.404;7.232;2023-05-08T00:12:16;23.50;;;19.10;;
2972;SDS011;1496;51.404;7.232;2023-05-08T00:14:43;25.60;;;19.13;;
2972;SDS011;1496;51.404;7.232;2023-05-08T00:17:09;24.93;;;19.00;;
2972;SDS011;1496;51.404;7.232;2023-05-08T00:19:36;25.93;;;20.40;;
2972;SDS011;1496;51.404;7.232;2023-05-08T00:22:02;21.93;;;18.87;;
2972;SDS011;1496;51.404;7.232;2023-05-08T00:24:29;22.43;;;19.03;;
2972;SDS011;1496;51.404;7.232;2023-05-08T00:26:55;24.50;;;18.73;;
2972;SDS011;1496;51.404;7.232;2023-05-08T00:29:22;24.03;;;19.23;;
2972;SDS011;1496;51.404;7.232;2023-05-08T00:31:49;25.80;;;19.90;;
2972;SDS011;1496;51.404;7.232;2023-05-08T00:34:16;25.20;;;19.43;;
2972;SDS011;1496;51.404;7.232;2023-05-08T00:36:43;29.97;;;19.97;;
2972;SDS011;1496;51.404;7.232;2023-05-08T00:39:09;28.47;;;19.57;;
2972;SDS011;1496;51.404;7.232;2023-05-08T00:41:37;29.13;;;20.70;;
2972;SDS011;1496;51.404;7.232;2023-05-08T00:44:03;26.00;;;21.23;;
2972;SDS011;1496;51.404;7.232;2023-05-08T00:46:32;28.10;;;22.00;;
2972;SDS011;1496;51.404;7.232;2023-05-08T00:49:00;28.80;;;22.17;;
2972;SDS011;1496;51.404;7.232;2023-05-08T00:51:29;24.10;;;19.47;;
2972;SDS011;1496;51.404;7.232;2023-05-08T00:54:00;26.20;;;20.37;;
2972;SDS011;1496;51.404;7.232;2023-05-08T00:56:26;27.03;;;21.67;;
2972;SDS011;1496;51.404;7.232;2023-05-08T00:58:55;28.37;;;20.80;;
2972;SDS011;1496;51.404;7.232;2023-05-08T01:01:23;28.40;;;22.73;;
2972;SDS011;1496;51.404;7.232;2023-05-08T01:03:54;28.10;;;22.23;;
2972;SDS011;1496;51.404;7.232;2023-05-08T01:06:21;30.00;;;21.47;;
2972;SDS011;1496;51.404;7.232;2023-05-08T01:08:48;25.30;;;20.70;;
2972;SDS011;1496;51.404;7.232;2023-05-08T01:11:21;26.83;;;21.03;;
2972;SDS011;1496;51.404;7.232;2023-05-08T01:36:10;28.27;;;20.13;;
2972;SDS011;1496;51.404;7.232;2023-05-08T01:38:59;24.97;;;21.80;;
2972;SDS011;1496;51.404;7.232;2023-05-08T01:41:34;26.67;;;21.27;;
2972;SDS011;1496;51.404;7.232;2023-05-08T01:44:09;26.40;;;21.00;;
2972;SDS011;1496;51.404;7.232;2023-05-08T01:46:44;31.40;;;21.50;;
2972;SDS011;1496;51.404;7.232;2023-05-08T01:49:24;25.73;;;20.33;;
2972;SDS011;1496;51.404;7.232;2023-05-08T01:52:09;27.90;;;20.23;;
2972;SDS011;1496;51.404;7.232;2023-05-08T01:54:49;26.80;;;19.67;;
2972;SDS011;1496;51.404;7.232;2023-05-08T01:57:26;26.80;;;17.87;;
2972;SDS011;1496;51.404;7.232;2023-05-08T01:59:56;22.80;;;17.77;;
2972;SDS011;1496;51.404;7.232;2023-05-08T02:02:25;23.63;;;17.57;;
2972;SDS011;1496;51.404;7.232;2023-05-08T02:04:56;26.33;;;19.77;;
2972;SDS011;1496;51.404;7.232;2023-05-08T02:07:23;26.70;;;20.33;;
2972;SDS011;1496;51.404;7.232;2023-05-08T02:09:53;25.53;;;21.23;;
2972;SDS011;1496;51.404;7.232;2023-05-08T02:12:19;29.60;;;22.30;;
2972;SDS011;1496;51.404;7.232;2023-05-08T02:14:49;24.67;;;20.27;;
2972;SDS011;1496;51.404;7.232;2023-05-08T02:17:19;35.67;;;21.43;;
2972;SDS011;1496;51.404;7.232;2023-05-08T02:19:46;23.70;;;19.60;;
2972;SDS011;1496;51.404;7.232;2023-05-08T02:22:15;26.57;;;20.90;;
2972;SDS011;1496;51.404;7.232;2023-05-08T02:24:43;24.57;;;21.03;;
2972;SDS011;1496;51.404;7.232;2023-05-08T02:27:10;29.80;;;21.93;;
2972;SDS011;1496;51.404;7.232;2023-05-08T02:29:37;25.20;;;20.33;;
2972;SDS011;1496;51.404;7.232;2023-05-08T02:32:05;28.67;;;20.40;;
2972;SDS011;1496;51.404;7.232;2023-05-08T02:34:34;26.13;;;20.67;;
2972;SDS011;1496;51.404;7.232;2023-05-08T02:37:02;25.60;;;21.97;;
2972;SDS011;1496;51.404;7.232;2023-05-08T02:39:31;25.27;;;21.47;;
2972;SDS011;1496;51.404;7.232;2023-05-08T02:42:01;27.87;;;20.80;;
2972;SDS011;1496;51.404;7.232;2023-05-08T02:44:30;28.73;;;20.77;;
2972;SDS011;1496;51.404;7.232;2023-05-08T02:47:21;30.17;;;21.77;;
2972;SDS011;1496;51.404;7.232;2023-05-08T02:52:28;29.17;;;22.30;;
2972;SDS011;1496;51.404;7.232;2023-05-08T02:55:11;27.90;;;20.93;;
2972;SDS011;1496;51.404;7.232;2023-05-08T02:57:52;24.17;;;19.17;;
2972;SDS011;1496;51.404;7.232;2023-05-08T03:00:45;27.27;;;20.97;;
2972;SDS011;1496;51.404;7.232;2023-05-08T03:03:21;28.97;;;20.57;;
2972;SDS011;1496;51.404;7.232;2023-05-08T03:05:54;26.10;;;20.57;;
2972;SDS011;1496;51.404;7.232;2023-05-08T03:08:24;26.10;;;19.40;;
2972;SDS011;1496;51.404;7.232;2023-05-08T03:10:55;23.73;;;19.40;;
2972;SDS011;1496;51.404;7.232;2023-05-08T03:13:24;22.13;;;18.10;;
2972;SDS011;1496;51.404;7.232;2023-05-08T03:15:57;27.03;;;19.20;;
2972;SDS011;1496;51.404;7.232;2023-05-08T03:18:30;24.77;;;20.50;;
2972;SDS011;1496;51.404;7.232;2023-05-08T03:21:02;24.23;;;19.60;;
2972;SDS011;1496;51.404;7.232;2023-05-08T03:23:32;24.57;;;20.37;;
2972;SDS011;1496;51.404;7.232;2023-05-08T03:26:00;28.47;;;20.30;;
2972;SDS011;1496;51.404;7.232;2023-05-08T03:28:32;24.33;;;20.60;;
2972;SDS011;1496;51.404;7.232;2023-05-08T03:31:02;25.07;;;18.20;;
2972;SDS011;1496;51.404;7.232;2023-05-08T03:33:32;34.53;;;21.27;;
2972;SDS011;1496;51.404;7.232;2023-05-08T03:36:02;29.80;;;21.47;;
2972;SDS011;1496;51.404;7.232;2023-05-08T03:38:30;25.00;;;20.67;;
2972;SDS011;1496;51.404;7.232;2023-05-08T03:40:57;23.90;;;20.40;;
2972;SDS011;1496;51.404;7.232;2023-05-08T03:43:26;25.07;;;21.00;;
2972;SDS011;1496;51.404;7.232;2023-05-08T03:45:54;24.40;;;19.77;;
2972;SDS011;1496;51.404;7.232;2023-05-08T03:48:23;28.30;;;22.37;;
2972;SDS011;1496;51.404;7.232;2023-05-08T03:50:52;26.37;;;20.53;;
2972;SDS011;1496;51.404;7.232;2023-05-08T03:53:20;26.23;;;20.30;;
2972;SDS011;1496;51.404;7.232;2023-05-08T03:55:48;27.80;;;20.77;;
2972;SDS011;1496;51.404;7.232;2023-05-08T04:05:09;29.10;;;21.23;;
2972;SDS011;1496;51.404;7.232;2023-05-08T04:07:48;30.57;;;21.87;;
2972;SDS011;1496;51.404;7.232;2023-05-08T04:10:31;31.23;;;22.07;;
2972;SDS011;1496;51.404;7.232;2023-05-08T04:13:15;25.10;;;20.00;;
2972;SDS011;1496;51.404;7.232;2023-05-08T04:15:51;29.87;;;22.77;;
2972;SDS011;1496;51.404;7.232;2023-05-08T04:18:43;29.17;;;23.10;;
2972;SDS011;1496;51.404;7.232;2023-05-08T04:21:21;25.70;;;20.60;;
2972;SDS011;1496;51.404;7.232;2023-05-08T04:23:52;30.00;;;21.20;;
2972;SDS011;1496;51.404;7.232;2023-05-08T04:26:24;30.73;;;21.40;;
2972;SDS011;1496;51.404;7.232;2023-05-08T04:28:55;27.90;;;22.03;;
2972;SDS011;1496;51.404;7.232;2023-05-08T04:31:22;25.23;;;20.57;;
2972;SDS011;1496;51.404;7.232;2023-05-08T04:33:51;32.03;;;21.87;;
2972;SDS011;1496;51.404;7.232;2023-05-08T04:36:21;28.17;;;21.53;;
2972;SDS011;1496;51.404;7.232;2023-05-08T04:38:50;25.87;;;19.80;;
2972;SDS011;1496;51.404;7.232;2023-05-08T04:41:20;28.03;;;21.40;;
2972;SDS011;1496;51.404;7.232;2023-05-08T04:43:48;25.97;;;20.00;;
2972;SDS011;1496;51.404;7.232;2023-05-08T04:46:15;29.63;;;22.63;;
2972;SDS011;1496;51.404;7.232;2023-05-08T04:48:43;30.17;;;20.57;;
2972;SDS011;1496;51.404;7.232;2023-05-08T04:51:10;26.13;;;19.07;;
2972;SDS011;1496;51.404;7.232;2023-05-08T04:53:42;27.50;;;20.40;;
2972;SDS011;1496;51.404;7.232;2023-05-08T04:56:09;26.80;;;20.80;;
2972;SDS011;1496;51.404;7.232;2023-05-08T04:58:36;28.33;;;21.53;;
2972;SDS011;1496;51.404;7.232;2023-05-08T05:01:02;25.40;;;19.70;;
2972;SDS011;1496;51.404;7.232;2023-05-08T05:03:31;27.73;;;20.43;;
2972;SDS011;1496;51.404;7.232;2023-05-08T05:06:01;25.03;;;20.57;;
2972;SDS011;1496;51.404;7.232;2023-05-08T05:08:29;27.07;;;19.53;;
2972;SDS011;1496;51.404;7.232;2023-05-08T05:10:57;24.37;;;19.30;;
2972;SDS011;1496;51.404;7.232;2023-05-08T05:13:23;26.73;;;20.43;;
2972;SDS011;1496;51.404;7.232;2023-05-08T05:15:51;22.33;;;18.87;;
2972;SDS011;1496;51.404;7.232;2023-05-08T05:18:20;27.40;;;19.80;;
2972;SDS011;1496;51.404;7.232;2023-05-08T05:20:49;25.37;;;18.60;;
2972;SDS011;1496;51.404;7.232;2023-05-08T05:23:16;22.10;;;18.13;;
2972;SDS011;1496;51.404;7.232;2023-05-08T05:25:43;25.03;;;17.87;;
2972;SDS011;1496;51.404;7.232;2023-05-08T05:28:11;24.97;;;19.67;;
2972;SDS011;1496;51.404;7.232;2023-05-08T05:30:38;25.30;;;18.60;;
2972;SDS011;1496;51.404;7.232;2023-05-08T05:33:07;25.10;;;19.73;;
2972;SDS011;1496;51.404;7.232;2023-05-08T05:35:35;26.00;;;18.70;;
2972;SDS011;1496;51.404;7.232;2023-05-08T05:38:02;22.57;;;19.20;;
2972;SDS011;1496;51.404;7.232;2023-05-08T05:40:28;23.40;;;18.30;;
2972;SDS011;1496;51.404;7.232;2023-05-08T05:42:56;19.70;;;16.90;;
2972;SDS011;1496;51.404;7.232;2023-05-08T05:45:24;22.00;;;17.93;;
2972;SDS011;1496;51.404;7.232;2023-05-08T05:47:51;22.83;;;18.97;;
2972;SDS011;1496;51.404;7.232;2023-05-08T05:50:21;19.00;;;15.83;;
2972;SDS011;1496;51.404;7.232;2023-05-08T05:52:48;24.33;;;18.00;;
2972;SDS011;1496;51.404;7.232;2023-05-08T05:55:16;19.70;;;16.57;;
2972;SDS011;1496;51.404;7.232;2023-05-08T05:57:45;20.67;;;16.90;;
2972;SDS011;1496;51.404;7.232;2023-05-08T06:00:13;20.20;;;17.60;;
2972;SDS011;1496;51.404;7.232;2023-05-08T06:02:46;23.23;;;17.83;;
2972;SDS011;1496;51.404;7.232;2023-05-08T06:05:15;19.50;;;17.30;;
2972;SDS011;1496;51.404;7.232;2023-05-08T06:07:47;21.67;;;16.13;;
2972;SDS011;1496;51.404;7.232;2023-05-08T06:10:14;18.50;;;15.57;;
2972;SDS011;1496;51.404;7.232;2023-05-08T06:12:42;19.07;;;16.67;;
2972;SDS011;1496;51.404;7.232;2023-05-08T06:15:09;20.23;;;16.33;;
2972;SDS011;1496;51.404;7.232;2023-05-08T06:17:41;14.20;;;11.70;;
2972;SDS011;1496;51.404;7.232;2023-05-08T06:20:08;16.50;;;12.73;;
2972;SDS011;1496;51.404;7.232;2023-05-08T06:22:36;13.27;;;11.60;;
2972;SDS011;1496;51.404;7.232;2023-05-08T06:25:05;12.40;;;9.80;;
2972;SDS011;1496;51.404;7.232;2023-05-08T06:27:34;13.70;;;10.20;;
2972;SDS011;1496;51.404;7.232;2023-05-08T06:30:02;14.53;;;9.57;;
2972;SDS011;1496;51.404;7.232;2023-05-08T06:32:33;10.37;;;8.67;;
2972;SDS011;1496;51.404;7.232;2023-05-08T06:35:03;9.67;;;8.73;;
2972;SDS011;1496;51.404;7.232;2023-05-08T06:37:30;10.80;;;8.90;;
2972;SDS011;1496;51.404;7.232;2023-05-08T06:42:57;9.10;;;8.20;;
2972;SDS011;1496;51.404;7.232;2023-05-08T06:45:26;11.00;;;8.03;;
2972;SDS011;1496;51.404;7.232;2023-05-08T06:47:53;12.63;;;9.00;;
2972;SDS011;1496;51.404;7.232;2023-05-08T06:50:22;11.17;;;8.70;;
2972;SDS011;1496;51.404;7.232;2023-05-08T06:52:50;9.60;;;7.83;;
2972;SDS011;1496;51.404;7.232;2023-05-08T06:55:18;13.23;;;7.63;;
2972;SDS011;1496;51.404;7.232;2023-05-08T06:57:45;10.73;;;9.47;;
2972;SDS011;1496;51.404;7.232;2023-05-08T07:00:11;18.40;;;8.53;;
2972;SDS011;1496;51.404;7.232;2023-05-08T07:02:38;10.97;;;8.30;;
2972;SDS011;1496;51.404;7.232;2023-05-08T07:05:05;13.07;;;9.13;;
2972;SDS011;1496;51.404;7.232;2023-05-08T07:07:32;10.90;;;8.80;;
2972;SDS011;1496;51.404;7.232;2023-05-08T07:09:59;11.27;;;9.07;;
2972;SDS011;1496;51.404;7.232;2023-05-08T07:12:28;10.17;;;8.93;;
2972;SDS011;1496;51.404;7.232;2023-05-08T07:14:54;8.33;;;7.50;;
2972;SDS011;1496;51.404;7.232;2023-05-08T07:17:22;11.07;;;9.23;;
2972;SDS011;1496;51.404;7.232;2023-05-08T07:19:49;9.93;;;8.43;;
2972;SDS011;1496;51.404;7.232;2023-05-08T07:22:17;9.10;;;7.50;;
2972;SDS011;1496;51.404;7.232;2023-05-08T07:24:43;17.13;;;8.23;;
2972;SDS011;1496;51.404;7.232;2023-05-08T07:27:11;10.03;;;7.20;;
2972;SDS011;1496;51.404;7.232;2023-05-08T07:29:39;10.47;;;7.97;;
2972;SDS011;1496;51.404;7.232;2023-05-08T07:32:08;9.10;;;8.07;;
2972;SDS011;1496;51.404;7.232;2023-05-08T07:34:35;10.60;;;7.90;;
2972;SDS011;1496;51.404;7.232;2023-05-08T07:37:02;10.77;;;7.60;;
2972;SDS011;1496;51.404;7.232;2023-05-08T07:39:30;9.57;;;7.80;;
2972;SDS011;1496;51.404;7.232;2023-05-08T07:41:58;7.80;;;6.50;;
2972;SDS011;1496;51.404;7.232;2023-05-08T07:44:27;8.10;;;7.30;;
2972;SDS011;1496;51.404;7.232;2023-05-08T07:47:06;9.30;;;6.80;;
2972;SDS011;1496;51.404;7.232;2023-05-08T07:49:34;10.60;;;7.50;;
2972;SDS011;1496;51.404;7.232;2023-05-08T07:52:05;9.90;;;7.13;;
2972;SDS011;1496;51.404;7.232;2023-05-08T07:54:34;8.40;;;7.47;;
2972;SDS011;1496;51.404;7.232;2023-05-08T07:57:07;7.63;;;6.83;;
2972;SDS011;1496;51.404;7.232;2023-05-08T07:59:37;11.03;;;8.13;;
2972;SDS011;1496;51.404;7.232;2023-05-08T08:02:09;8.80;;;7.90;;
2972;SDS011;1496;51.404;7.232;2023-05-08T08:04:36;10.33;;;8.10;;
2972;SDS011;1496;51.404;7.232;2023-05-08T08:07:07;8.23;;;7.43;;
2972;SDS011;1496;51.404;7.232;2023-05-08T08:09:34;9.17;;;7.00;;
2972;SDS011;1496;51.404;7.232;2023-05-08T08:12:02;8.60;;;7.00;;
2972;SDS011;1496;51.404;7.232;2023-05-08T08:14:33;6.73;;;6.13;;
2972;SDS011;1496;51.404;7.232;2023-05-08T08:17:00;8.57;;;7.67;;
2972;SDS011;1496;51.404;7.232;2023-05-08T08:19:28;7.90;;;7.10;;
2972;SDS011;1496;51.404;7.232;2023-05-08T08:21:54;10.53;;;8.17;;
2972;SDS011;1496;51.404;7.232;2023-05-08T08:24:21;14.70;;;8.00;;
2972;SDS011;1496;51.404;7.232;2023-05-08T08:26:49;18.30;;;7.13;;
2972;SDS011;1496;51.404;7.232;2023-05-08T08:29:16;8.00;;;7.20;;
2972;SDS011;1496;51.404;7.232;2023-05-08T08:31:43;9.57;;;7.70;;
2972;SDS011;1496;51.404;7.232;2023-05-08T08:34:10;10.03;;;6.50;;
2972;SDS011;1496;51.404;7.232;2023-05-08T08:36:37;11.00;;;6.77;;
2972;SDS011;1496;51.404;7.232;2023-05-08T08:39:12;7.97;;;7.17;;
2972;SDS011;1496;51.404;7.232;2023-05-08T08:41:42;7.90;;;7.10;;
2972;SDS011;1496;51.404;7.232;2023-05-08T08:44:09;8.00;;;7.20;;
2972;SDS011;1496;51.404;7.232;2023-05-08T08:46:35;8.80;;;7.03;;
2972;SDS011;1496;51.404;7.232;2023-05-08T08:49:35;7.37;;;6.27;;
2972;SDS011;1496;51.404;7.232;2023-05-08T08:55:06;8.60;;;5.50;;
2972;SDS011;1496;51.404;7.232;2023-05-08T08:57:38;7.90;;;5.90;;
2972;SDS011;1496;51.404;7.232;2023-05-08T09:00:11;7.73;;;4.73;;
2972;SDS011;1496;51.404;7.232;2023-05-08T09:02:43;9.77;;;5.30;;
2972;SDS011;1496;51.404;7.232;2023-05-08T09:05:10;8.67;;;4.80;;
2972;SDS011;1496;51.404;7.232;2023-05-08T09:07:40;8.73;;;5.10;;
2972;SDS011;1496;51.404;7.232;2023-05-08T09:10:09;9.43;;;4.93;;
2972;SDS011;1496;51.404;7.232;2023-05-08T09:12:41;9.00;;;4.97;;
2972;SDS011;1496;51.404;7.232;2023-05-08T09:15:09;10.53;;;5.50;;
2972;SDS011;1496;51.404;7.232;2023-05-08T09:17:36;8.97;;;4.30;;
2972;SDS011;1496;51.404;7.232;2023-05-08T09:20:03;9.47;;;4.90;;
2972;SDS011;1496;51.404;7.232;2023-05-08T09:22:30;8.23;;;4.73;;
2972;SDS011;1496;51.404;7.232;2023-05-08T09:24:59;9.37;;;5.60;;
2972;SDS011;1496;51.404;7.232;2023-05-08T09:27:28;12.10;;;4.80;;
2972;SDS011;1496;51.404;7.232;2023-05-08T09:29:58;12.80;;;4.53;;
2972;SDS011;1496;51.404;7.232;2023-05-08T09:32:28;13.30;;;4.93;;
2972;SDS011;1496;51.404;7.232;2023-05-08T09:34:58;17.60;;;4.23;;
2972;SDS011;1496;51.404;7.232;2023-05-08T09:37:26;19.00;;;3.93;;
2972;SDS011;1496;51.404;7.232;2023-05-08T09:42:41;21.40;;;4.47;;
2972;SDS011;1496;51.404;7.232;2023-05-08T09:45:10;21.40;;;4.37;;
2972;SDS011;1496;51.404;7.232;2023-05-08T09:47:37;22.13;;;4.87;;
2972;SDS011;1496;51.404;7.232;2023-05-08T09:50:12;19.80;;;4.80;;
2972;SDS011;1496;51.404;7.232;2023-05-08T09:52:44;22.50;;;4.93;;
2972;SDS011;1496;51.404;7.232;2023-05-08T09:55:12;22.00;;;4.80;;
2972;SDS011;1496;51.404;7.232;2023-05-08T09:57:39;20.30;;;4.40;;
2972;SDS011;1496;51.404;7.232;2023-05-08T10:00:17;23.77;;;5.10;;
2972;SDS011;1496;51.404;7.232;2023-05-08T10:03:00;22.90;;;4.63;;
2972;SDS011;1496;51.404;7.232;2023-05-08T10:05:28;21.40;;;4.53;;
2972;SDS011;1496;51.404;7.232;2023-05-08T10:07:56;16.90;;;4.77;;
2972;SDS011;1496;51.404;7.232;2023-05-08T10:10:26;19.00;;;5.43;;
2972;SDS011;1496;51.404;7.232;2023-05-08T10:12:55;19.10;;;4.47;;
2972;SDS011;1496;51.404;7.232;2023-05-08T10:15:24;20.70;;;4.53;;
2972;SDS011;1496;51.404;7.232;2023-05-08T10:20:32;21.07;;;3.50;;
2972;SDS011;1496;51.404;7.232;2023-05-08T10:23:02;21.53;;;4.27;;
2972;SDS011;1496;51.404;7.232;2023-05-08T10:25:32;24.87;;;4.27;;
2972;SDS011;1496;51.404;7.232;2023-05-08T10:30:30;19.80;;;3.93;;
2972;SDS011;1496;51.404;7.232;2023-05-08T10:32:59;16.27;;;4.10;;
2972;SDS011;1496;51.404;7.232;2023-05-08T10:35:31;14.03;;;3.67;;
2972;SDS011;1496;51.404;7.232;2023-05-08T10:37:59;15.93;;;3.50;;
2972;SDS011;1496;51.404;7.232;2023-05-08T10:40:27;20.27;;;3.53;;
2972;SDS011;1496;51.404;7.232;2023-05-08T10:42:54;23.40;;;3.73;;
2972;SDS011;1496;51.404;7.232;2023-05-08T10:45:22;21.30;;;3.83;;
2972;SDS011;1496;51.404;7.232;2023-05-08T10:47:56;20.40;;;4.40;;
2972;SDS011;1496;51.404;7.232;2023-05-08T10:56:04;17.60;;;4.40;;
2972;SDS011;1496;51.404;7.232;2023-05-08T10:58:35;21.50;;;4.23;;
2972;SDS011;1496;51.404;7.232;2023-05-08T11:03:48;20.87;;;4.20;;
2972;SDS011;1496;51.404;7.232;2023-05-08T11:06:15;21.50;;;3.87;;
2972;SDS011;1496;51.404;7.232;2023-05-08T11:08:45;22.80;;;4.60;;
2972;SDS011;1496;51.404;7.232;2023-05-08T11:11:23;23.30;;;3.90;;
2972;SDS011;1496;51.404;7.232;2023-05-08T11:13:54;27.03;;;4.50;;
2972;SDS011;1496;51.404;7.232;2023-05-08T11:19:31;20.63;;;3.30;;
2972;SDS011;1496;51.404;7.232;2023-05-08T11:22:20;17.67;;;3.73;;
2972;SDS011;1496;51.404;7.232;2023-05-08T11:24:51;17.77;;;4.13;;
2972;SDS011;1496;51.404;7.232;2023-05-08T11:27:30;11.83;;;4.27;;
2972;SDS011;1496;51.404;7.232;2023-05-08T11:33:10;16.47;;;4.13;;
2972;SDS011;1496;51.404;7.232;2023-05-08T11:38:17;18.30;;;4.57;;
2972;SDS011;1496;51.404;7.232;2023-05-08T11:46:03;13.53;;;4.03;;
2972;SDS011;1496;51.404;7.232;2023-05-08T11:48:37;13.83;;;4.37;;
2972;SDS011;1496;51.404;7.232;2023-05-08T11:51:06;14.00;;;4.80;;
2972;SDS011;1496;51.404;7.232;2023-05-08T11:56:32;11.50;;;4.70;;
2972;SDS011;1496;51.404;7.232;2023-05-08T11:59:02;16.50;;;4.43;;
2972;SDS011;1496;51.404;7.232;2023-05-08T12:01:34;21.17;;;4.80;;
2972;SDS011;1496;51.404;7.232;2023-05-08T12:04:01;11.57;;;4.77;;
2972;SDS011;1496;51.404;7.232;2023-05-08T12:06:30;6.10;;;3.53;;
2972;SDS011;1496;51.404;7.232;2023-05-08T12:08:59;5.63;;;4.13;;
2972;SDS011;1496;51.404;7.232;2023-05-08T12:11:29;4.83;;;3.67;;
2972;SDS011;1496;51.404;7.232;2023-05-08T12:13:56;5.50;;;4.40;;
2972;SDS011;1496;51.404;7.232;2023-05-08T12:16:23;3.60;;;3.20;;
2972;SDS011;1496;51.404;7.232;2023-05-08T12:18:50;7.43;;;4.50;;
2972;SDS011;1496;51.404;7.232;2023-05-08T12:21:36;7.10;;;3.97;;
2972;SDS011;1496;51.404;7.232;2023-05-08T12:24:08;5.30;;;4.03;;
2972;SDS011;1496;51.404;7.232;2023-05-08T12:26:36;6.60;;;4.40;;
2972;SDS011;1496;51.404;7.232;2023-05-08T12:29:07;4.20;;;3.50;;
2972;SDS011;1496;51.404;7.232;2023-05-08T12:31:36;6.13;;;4.20;;
2972;SDS011;1496;51.404;7.232;2023-05-08T12:34:04;6.33;;;4.50;;
2972;SDS011;1496;51.404;7.232;2023-05-08T12:36:34;6.57;;;5.30;;
2972;SDS011;1496;51.404;7.232;2023-05-08T12:39:10;3.97;;;3.53;;
2972;SDS011;1496;51.404;7.232;2023-05-08T12:41:47;4.63;;;4.13;;
2972;SDS011;1496;51.404;7.232;2023-05-08T12:44:25;5.97;;;4.50;;
2972;SDS011;1496;51.404;7.232;2023-05-08T12:46:56;6.37;;;4.73;;
2972;SDS011;1496;51.404;7.232;2023-05-08T12:49:27;5.30;;;4.80;;
2972;SDS011;1496;51.404;7.232;2023-05-08T12:52:06;6.93;;;4.73;;
2972;SDS011;1496;51.404;7.232;2023-05-08T12:54:39;7.97;;;5.23;;
2972;SDS011;1496;51.404;7.232;2023-05-08T12:57:12;6.50;;;5.20;;
2972;SDS011;1496;51.404;7.232;2023-05-08T12:59:45;5.20;;;4.70;;
2972;SDS011;1496;51.404;7.232;2023-05-08T13:02:15;6.93;;;5.77;;
2972;SDS011;1496;51.404;7.232;2023-05-08T13:04:49;6.80;;;5.03;;
2972;SDS011;1496;51.404;7.232;2023-05-08T13:07:23;11.50;;;6.30;;
2972;SDS011;1496;51.404;7.232;2023-05-08T13:09:57;6.50;;;5.90;;
2972;SDS011;1496;51.404;7.232;2023-05-08T13:12:29;7.10;;;5.60;;
2972;SDS011;1496;51.404;7.232;2023-05-08T13:14:56;9.70;;;6.27;;
2972;SDS011;1496;51.404;7.232;2023-05-08T13:17:24;11.87;;;6.27;;
2972;SDS011;1496;51.404;7.232;2023-05-08T13:19:52;9.03;;;6.53;;
2972;SDS011;1496;51.404;7.232;2023-05-08T13:22:22;7.10;;;6.40;;
2972;SDS011;1496;51.404;7.232;2023-05-08T13:24:51;7.33;;;6.60;;
2972;SDS011;1496;51.404;7.232;2023-05-08T13:27:18;7.50;;;6.47;;
2972;SDS011;1496;51.404;7.232;2023-05-08T13:29:46;10.67;;;6.80;;
2972;SDS011;1496;51.404;7.232;2023-05-08T13:32:13;7.70;;;6.90;;
2972;SDS011;1496;51.404;7.232;2023-05-08T13:34:40;7.73;;;7.03;;
2972;SDS011;1496;51.404;7.232;2023-05-08T13:37:07;11.23;;;7.50;;
2972;SDS011;1496;51.404;7.232;2023-05-08T13:39:35;9.93;;;6.90;;
2972;SDS011;1496;51.404;7.232;2023-05-08T13:42:02;8.33;;;7.43;;
2972;SDS011;1496;51.404;7.232;2023-05-08T13:44:37;8.40;;;6.47;;
2972;SDS011;1496;51.404;7.232;2023-05-08T13:47:11;8.90;;;7.23;;
2972;SDS011;1496;51.404;7.232;2023-05-08T13:49:38;14.40;;;7.27;;
2972;SDS011;1496;51.404;7.232;2023-05-08T13:52:25;13.90;;;7.77;;
2972;SDS011;1496;51.404;7.232;2023-05-08T13:55:39;10.57;;;7.83;;
2972;SDS011;1496;51.404;7.232;2023-05-08T13:58:06;7.63;;;6.93;;
2972;SDS011;1496;51.404;7.232;2023-05-08T14:00:34;7.87;;;7.07;;
2972;SDS011;1496;51.404;7.232;2023-05-08T14:03:01;9.27;;;7.50;;
2972;SDS011;1496;51.404;7.232;2023-05-08T14:05:27;8.47;;;7.30;;
2972;SDS011;1496;51.404;7.232;2023-05-08T14:07:54;6.80;;;6.20;;
2972;SDS011;1496;51.404;7.232;2023-05-08T14:10:22;7.80;;;7.00;;
2972;SDS011;1496;51.404;7.232;2023-05-08T14:12:51;12.17;;;7.33;;
2972;SDS011;1496;51.404;7.232;2023-05-08T14:15:18;6.80;;;6.10;;
2972;SDS011;1496;51.404;7.232;2023-05-08T14:17:46;7.77;;;6.43;;
2972;SDS011;1496;51.404;7.232;2023-05-08T14:20:12;8.80;;;6.70;;
2972;SDS011;1496;51.404;7.232;2023-05-08T14:22:39;8.03;;;7.23;;
2972;SDS011;1496;51.404;7.232;2023-05-08T14:25:06;7.57;;;6.77;;
2972;SDS011;1496;51.404;7.232;2023-05-08T14:27:35;7.60;;;6.40;;
2972;SDS011;1496;51.404;7.232;2023-05-08T14:30:02;6.57;;;5.90;;
2972;SDS011;1496;51.404;7.232;2023-05-08T14:32:29;7.53;;;5.93;;
2972;SDS011;1496;51.404;7.232;2023-05-08T14:34:57;9.43;;;6.90;;
2972;SDS011;1496;51.404;7.232;2023-05-08T14:37:23;8.23;;;5.80;;
2972;SDS011;1496;51.404;7.232;2023-05-08T14:39:52;8.73;;;6.27;;
2972;SDS011;1496;51.404;7.232;2023-05-08T14:42:20;6.90;;;6.13;;
2972;SDS011;1496;51.404;7.232;2023-05-08T14:44:47;7.63;;;5.40;;
2972;SDS011;1496;51.404;7.232;2023-05-08T14:47:14;7.43;;;6.50;;
2972;SDS011;1496;51.404;7.232;2023-05-08T14:49:48;7.53;;;5.53;;
2972;SDS011;1496;51.404;7.232;2023-05-08T14:52:15;6.10;;;5.50;;
2972;SDS011;1496;51.404;7.232;2023-05-08T14:54:42;7.33;;;5.83;;
2972;SDS011;1496;51.404;7.232;2023-05-08T14:57:10;9.33;;;7.50;;
2972;SDS011;1496;51.404;7.232;2023-05-08T14:59:36;6.03;;;5.43;;
2972;SDS011;1496;51.404;7.232;2023-05-08T15:02:03;7.17;;;6.30;;
2972;SDS011;1496;51.404;7.232;2023-05-08T15:04:33;6.60;;;5.87;;
2972;SDS011;1496;51.404;7.232;2023-05-08T15:11:11;7.83;;;7.03;;
2972;SDS011;1496;51.404;7.232;2023-05-08T15:13:37;7.67;;;6.50;;
2972;SDS011;1496;51.404;7.232;2023-05-08T15:16:04;6.83;;;6.10;;
2972;SDS011;1496;51.404;7.232;2023-05-08T15:18:31;8.20;;;6.20;;
2972;SDS011;1496;51.404;7.232;2023-05-08T15:20:57;7.03;;;6.33;;
2972;SDS011;1496;51.404;7.232;2023-05-08T15:23:25;7.20;;;6.50;;
2972;SDS011;1496;51.404;7.232;2023-05-08T15:25:52;7.07;;;5.83;;
2972;SDS011;1496;51.404;7.232;2023-05-08T15:28:19;17.60;;;6.33;;
2972;SDS011;1496;51.404;7.232;2023-05-08T15:30:46;8.60;;;6.57;;
2972;SDS011;1496;51.404;7.232;2023-05-08T15:33:13;7.23;;;6.60;;
2972;SDS011;1496;51.404;7.232;2023-05-08T15:35:40;9.20;;;6.90;;
2972;SDS011;1496;51.404;7.232;2023-05-08T15:38:07;6.37;;;5.73;;
2972;SDS011;1496;51.404;7.232;2023-05-08T15:40:35;8.97;;;5.80;;
2972;SDS011;1496;51.404;7.232;2023-05-08T15:43:04;6.43;;;5.53;;
2972;SDS011;1496;51.404;7.232;2023-05-08T15:45:32;8.33;;;6.70;;
2972;SDS011;1496;51.404;7.232;2023-05-08T15:48:00;7.00;;;5.07;;
2972;SDS011;1496;51.404;7.232;2023-05-08T15:50:36;9.80;;;6.00;;
2972;SDS011;1496;51.404;7.232;2023-05-08T15:53:03;9.53;;;6.13;;
2972;SDS011;1496;51.404;7.232;2023-05-08T15:55:30;7.77;;;6.40;;
2972;SDS011;1496;51.404;7.232;2023-05-08T15:57:58;8.30;;;5.47;;
2972;SDS011;1496;51.404;7.232;2023-05-08T16:00:25;10.40;;;6.20;;
2972;SDS011;1496;51.404;7.232;2023-05-08T16:02:53;6.47;;;5.87;;
2972;SDS011;1496;51.404;7.232;2023-05-08T16:05:20;6.87;;;6.00;;
2972;SDS011;1496;51.404;7.232;2023-05-08T16:07:46;6.57;;;5.50;;
2972;SDS011;1496;51.404;7.232;2023-05-08T16:10:16;6.10;;;5.50;;
2972;SDS011;1496;51.404;7.232;2023-05-08T16:12:42;5.73;;;5.20;;
2972;SDS011;1496;51.404;7.232;2023-05-08T16:15:08;6.60;;;5.97;;
2972;SDS011;1496;51.404;7.232;2023-05-08T16:17:35;6.80;;;5.67;;
2972;SDS011;1496;51.404;7.232;2023-05-08T16:20:02;9.60;;;6.17;;
2972;SDS011;1496;51.404;7.232;2023-05-08T16:22:29;6.10;;;5.60;;
2972;SDS011;1496;51.404;7.232;2023-05-08T16:24:58;6.93;;;6.20;;
2972;SDS011;1496;51.404;7.232;2023-05-08T16:27:26;6.77;;;5.80;;
2972;SDS011;1496;51.404;7.232;2023-05-08T16:29:54;5.90;;;5.33;;
2972;SDS011;1496;51.404;7.232;2023-05-08T16:32:20;6.67;;;6.07;;